Yellowstone Natl Park, Wyoming
Current Conditions -  °F | °C
As of 6:22 PM on Tuesday 27 Jan 2015 (Local Time) from KDIJ Reporting Station
Unknown Precip Unknown Precip  
Wind Chill: 29°   Ceiling: 2400
Heat Index: 36°   Visibility: 7mi
Dew Point: 34°   Wind: 9mph
Humidity: 93%   Direction: 170°S
Pressure: 30.17"   Gusts: NA
Location:  44.5°N, 110.58°W
Report Text: KDIJ 280122Z AUTO 17008KT 7SM UP FEW018 BKN024 OVC042 02/01 A3017 RMK AO2 BKN V SCT RAE04UPB00 P0000
Loading
Personal Weather Stations






























Interactive Weather Map New forecast layout! Learn more

10-Day Weather Forecast

Advertisements
Track Severe Weather on mobile